sensor_id;sensor_type;location;lat;lon;timestamp;pressure;altitude;pressure_sealevel;temperature;humidity
6218;BME280;3142;48.206;11.550;2023-04-27T00:01:05;95783.84;;;10.06;58.06
6218;BME280;3142;48.206;11.550;2023-04-27T00:03:35;95782.25;;;10.12;58.28
6218;BME280;3142;48.206;11.550;2023-04-27T00:06:01;95783.25;;;10.11;58.29
6218;BME280;3142;48.206;11.550;2023-04-27T00:08:29;95785.94;;;10.18;58.26
6218;BME280;3142;48.206;11.550;2023-04-27T00:10:56;95780.25;;;10.14;58.02
6218;BME280;3142;48.206;11.550;2023-04-27T00:13:22;95777.28;;;10.17;58.16
6218;BME280;3142;48.206;11.550;2023-04-27T00:15:49;95785.53;;;10.21;58.71
6218;BME280;3142;48.206;11.550;2023-04-27T00:18:15;95785.53;;;10.21;58.61
6218;BME280;3142;48.206;11.550;2023-04-27T00:20:42;95784.34;;;10.23;58.52
6218;BME280;3142;48.206;11.550;2023-04-27T00:23:08;95782.75;;;10.22;59.46
6218;BME280;3142;48.206;11.550;2023-04-27T00:25:36;95781.31;;;10.20;58.92
6218;BME280;3142;48.206;11.550;2023-04-27T00:28:03;95772.63;;;10.13;60.14
6218;BME280;3142;48.206;11.550;2023-04-27T00:30:29;95771.59;;;10.14;59.77
6218;BME280;3142;48.206;11.550;2023-04-27T00:32:56;95770.81;;;10.13;60.00
6218;BME280;3142;48.206;11.550;2023-04-27T00:35:22;95767.78;;;10.09;60.74
6218;BME280;3142;48.206;11.550;2023-04-27T00:37:49;95768.19;;;10.06;60.65
6218;BME280;3142;48.206;11.550;2023-04-27T00:40:15;95770.41;;;10.09;61.29
6218;BME280;3142;48.206;11.550;2023-04-27T00:42:43;95773.41;;;10.13;60.57
6218;BME280;3142;48.206;11.550;2023-04-27T00:45:10;95768.38;;;10.12;61.17
6218;BME280;3142;48.206;11.550;2023-04-27T00:47:37;95776.84;;;10.14;61.31
6218;BME280;3142;48.206;11.550;2023-04-27T00:50:04;95769.19;;;10.12;61.00
6218;BME280;3142;48.206;11.550;2023-04-27T00:52:32;95772.81;;;10.11;61.41
6218;BME280;3142;48.206;11.550;2023-04-27T00:55:18;95776.22;;;10.12;61.42
6218;BME280;3142;48.206;11.550;2023-04-27T00:57:46;95774.81;;;10.09;61.63
6218;BME280;3142;48.206;11.550;2023-04-27T01:00:13;95777.44;;;10.09;61.58
6218;BME280;3142;48.206;11.550;2023-04-27T01:02:40;95775.03;;;10.14;61.13
6218;BME280;3142;48.206;11.550;2023-04-27T01:05:07;95775.28;;;10.19;61.35
6218;BME280;3142;48.206;11.550;2023-04-27T01:07:36;95772.09;;;10.24;62.32
6218;BME280;3142;48.206;11.550;2023-04-27T01:10:03;95765.00;;;10.18;62.25
6218;BME280;3142;48.206;11.550;2023-04-27T01:12:30;95772.03;;;10.17;62.67
6218;BME280;3142;48.206;11.550;2023-04-27T01:14:57;95771.81;;;10.12;62.86
6218;BME280;3142;48.206;11.550;2023-04-27T01:17:24;95772.63;;;10.13;63.09
6218;BME280;3142;48.206;11.550;2023-04-27T01:19:50;95768.59;;;10.10;63.15
6218;BME280;3142;48.206;11.550;2023-04-27T01:22:19;95771.78;;;10.05;63.23
6218;BME280;3142;48.206;11.550;2023-04-27T01:24:47;95767.38;;;10.06;63.17
6218;BME280;3142;48.206;11.550;2023-04-27T01:27:13;95768.13;;;10.00;63.63
6218;BME280;3142;48.206;11.550;2023-04-27T01:29:40;95771.13;;;9.97;64.50
6218;BME280;3142;48.206;11.550;2023-04-27T01:32:06;95770.13;;;9.98;64.44
6218;BME280;3142;48.206;11.550;2023-04-27T01:34:32;95775.16;;;9.93;64.42
6218;BME280;3142;48.206;11.550;2023-04-27T01:36:59;95769.38;;;10.04;63.96
6218;BME280;3142;48.206;11.550;2023-04-27T01:39:25;95774.00;;;10.02;63.20
6218;BME280;3142;48.206;11.550;2023-04-27T01:41:53;95777.56;;;9.94;63.00
6218;BME280;3142;48.206;11.550;2023-04-27T01:44:20;95776.94;;;9.92;63.94
6218;BME280;3142;48.206;11.550;2023-04-27T01:46:48;95775.16;;;9.99;63.73
6218;BME280;3142;48.206;11.550;2023-04-27T01:49:14;95783.00;;;9.99;63.79
6218;BME280;3142;48.206;11.550;2023-04-27T01:51:41;95791.03;;;9.98;63.39
6218;BME280;3142;48.206;11.550;2023-04-27T01:54:07;95788.22;;;9.93;63.85
6218;BME280;3142;48.206;11.550;2023-04-27T01:56:34;95780.19;;;9.94;63.41
6218;BME280;3142;48.206;11.550;2023-04-27T01:59:02;95785.78;;;9.91;63.67
6218;BME280;3142;48.206;11.550;2023-04-27T02:01:28;95789.34;;;9.77;64.00
6218;BME280;3142;48.206;11.550;2023-04-27T02:03:55;95788.66;;;9.68;63.69
6218;BME280;3142;48.206;11.550;2023-04-27T02:06:22;95791.66;;;9.65;64.21
6218;BME280;3142;48.206;11.550;2023-04-27T02:08:48;95781.81;;;9.61;63.81
6218;BME280;3142;48.206;11.550;2023-04-27T02:11:15;95784.41;;;9.61;62.89
6218;BME280;3142;48.206;11.550;2023-04-27T02:13:41;95776.75;;;9.59;63.51
6218;BME280;3142;48.206;11.550;2023-04-27T02:16:09;95787.94;;;9.46;63.62
6218;BME280;3142;48.206;11.550;2023-04-27T02:18:35;95788.75;;;9.47;62.76
6218;BME280;3142;48.206;11.550;2023-04-27T02:21:07;95793.19;;;9.53;62.79
6218;BME280;3142;48.206;11.550;2023-04-27T02:23:33;95795.81;;;9.53;62.23
6218;BME280;3142;48.206;11.550;2023-04-27T02:26:00;95789.56;;;9.47;62.59
6218;BME280;3142;48.206;11.550;2023-04-27T02:28:26;95795.31;;;9.43;62.92
6218;BME280;3142;48.206;11.550;2023-04-27T02:30:53;95796.31;;;9.42;63.47
6218;BME280;3142;48.206;11.550;2023-04-27T02:33:20;95801.13;;;9.38;63.49
6218;BME280;3142;48.206;11.550;2023-04-27T02:35:47;95791.69;;;9.37;63.79
6218;BME280;3142;48.206;11.550;2023-04-27T02:38:13;95793.41;;;9.30;62.95
6218;BME280;3142;48.206;11.550;2023-04-27T02:40:40;95791.81;;;9.29;63.77
6218;BME280;3142;48.206;11.550;2023-04-27T02:43:06;95786.34;;;9.24;63.17
6218;BME280;3142;48.206;11.550;2023-04-27T02:45:35;95796.38;;;9.20;64.28
6218;BME280;3142;48.206;11.550;2023-04-27T02:48:02;95800.78;;;9.20;64.14
6218;BME280;3142;48.206;11.550;2023-04-27T02:50:30;95797.69;;;9.10;63.54
6218;BME280;3142;48.206;11.550;2023-04-27T02:52:56;95802.84;;;9.03;65.08
6218;BME280;3142;48.206;11.550;2023-04-27T02:55:23;95798.19;;;8.99;64.83
6218;BME280;3142;48.206;11.550;2023-04-27T02:57:51;95803.47;;;9.05;64.86
6218;BME280;3142;48.206;11.550;2023-04-27T03:00:18;95799.69;;;9.08;65.17
6218;BME280;3142;48.206;11.550;2023-04-27T03:02:44;95801.78;;;8.98;64.70
6218;BME280;3142;48.206;11.550;2023-04-27T03:05:11;95797.47;;;9.05;64.95
6218;BME280;3142;48.206;11.550;2023-04-27T03:07:39;95793.03;;;9.05;65.53
6218;BME280;3142;48.206;11.550;2023-04-27T03:10:06;95793.41;;;9.02;64.26
6218;BME280;3142;48.206;11.550;2023-04-27T03:12:33;95790.47;;;8.90;64.85
6218;BME280;3142;48.206;11.550;2023-04-27T03:14:59;95792.78;;;8.79;65.54
6218;BME280;3142;48.206;11.550;2023-04-27T03:17:26;95795.59;;;8.77;65.36
6218;BME280;3142;48.206;11.550;2023-04-27T03:19:53;95803.56;;;8.76;65.26
6218;BME280;3142;48.206;11.550;2023-04-27T03:22:19;95800.13;;;8.69;66.14
6218;BME280;3142;48.206;11.550;2023-04-27T03:24:47;95807.13;;;8.68;65.18
6218;BME280;3142;48.206;11.550;2023-04-27T03:27:14;95806.25;;;8.61;65.59
6218;BME280;3142;48.206;11.550;2023-04-27T03:29:40;95809.47;;;8.63;65.98
6218;BME280;3142;48.206;11.550;2023-04-27T03:32:07;95816.47;;;8.63;66.71
6218;BME280;3142;48.206;11.550;2023-04-27T03:34:33;95811.16;;;8.71;65.66
6218;BME280;3142;48.206;11.550;2023-04-27T03:37:00;95813.34;;;8.67;66.38
6218;BME280;3142;48.206;11.550;2023-04-27T03:39:27;95825.31;;;8.61;66.59
6218;BME280;3142;48.206;11.550;2023-04-27T03:41:54;95826.56;;;8.66;66.30
6218;BME280;3142;48.206;11.550;2023-04-27T03:44:21;95825.69;;;8.58;66.24
6218;BME280;3142;48.206;11.550;2023-04-27T03:46:48;95818.59;;;8.52;66.33
6218;BME280;3142;48.206;11.550;2023-04-27T03:49:14;95816.19;;;8.51;66.63
6218;BME280;3142;48.206;11.550;2023-04-27T03:51:40;95817.78;;;8.52;66.09
6218;BME280;3142;48.206;11.550;2023-04-27T03:54:08;95820.22;;;8.53;67.52
6218;BME280;3142;48.206;11.550;2023-04-27T03:56:35;95822.19;;;8.51;66.61
6218;BME280;3142;48.206;11.550;2023-04-27T03:59:03;95817.03;;;8.58;66.84
6218;BME280;3142;48.206;11.550;2023-04-27T04:01:30;95825.38;;;8.68;67.07
6218;BME280;3142;48.206;11.550;2023-04-27T04:03:58;95831.41;;;8.69;66.52
6218;BME280;3142;48.206;11.550;2023-04-27T04:06:24;95828.44;;;8.72;67.12
6218;BME280;3142;48.206;11.550;2023-04-27T04:08:52;95838.13;;;8.78;66.05
6218;BME280;3142;48.206;11.550;2023-04-27T04:11:18;95839.75;;;8.79;65.98
6218;BME280;3142;48.206;11.550;2023-04-27T04:13:45;95845.84;;;8.86;66.38
6218;BME280;3142;48.206;11.550;2023-04-27T04:16:13;95850.25;;;8.85;66.99
6218;BME280;3142;48.206;11.550;2023-04-27T04:18:39;95852.47;;;8.88;67.04
6218;BME280;3142;48.206;11.550;2023-04-27T04:21:08;95852.47;;;8.88;66.70
6218;BME280;3142;48.206;11.550;2023-04-27T04:23:34;95855.47;;;8.85;65.71
6218;BME280;3142;48.206;11.550;2023-04-27T04:26:01;95855.09;;;8.88;67.54
6218;BME280;3142;48.206;11.550;2023-04-27T04:28:28;95857.25;;;8.85;67.15
6218;BME280;3142;48.206;11.550;2023-04-27T04:30:54;95855.88;;;8.89;68.17
6218;BME280;3142;48.206;11.550;2023-04-27T04:33:22;95858.41;;;8.97;66.94
6218;BME280;3142;48.206;11.550;2023-04-27T04:35:50;95860.63;;;9.00;66.77
6218;BME280;3142;48.206;11.550;2023-04-27T04:38:17;95861.63;;;8.99;67.65
6218;BME280;3142;48.206;11.550;2023-04-27T04:40:44;95866.66;;;9.01;67.39
6218;BME280;3142;48.206;11.550;2023-04-27T04:43:10;95873.28;;;9.03;68.00
6218;BME280;3142;48.206;11.550;2023-04-27T04:45:37;95876.78;;;9.10;66.88
6218;BME280;3142;48.206;11.550;2023-04-27T04:48:04;95862.56;;;9.13;67.35
6218;BME280;3142;48.206;11.550;2023-04-27T04:50:32;95870.19;;;9.14;68.04
6218;BME280;3142;48.206;11.550;2023-04-27T04:52:58;95866.06;;;9.20;67.40
6218;BME280;3142;48.206;11.550;2023-04-27T04:55:25;95866.25;;;9.18;67.49
6218;BME280;3142;48.206;11.550;2023-04-27T04:57:51;95873.31;;;9.25;67.05
6218;BME280;3142;48.206;11.550;2023-04-27T05:00:18;95876.16;;;9.30;66.77
6218;BME280;3142;48.206;11.550;2023-04-27T05:02:44;95879.75;;;9.29;67.74
6218;BME280;3142;48.206;11.550;2023-04-27T05:05:11;95884.44;;;9.33;67.46
6218;BME280;3142;48.206;11.550;2023-04-27T05:07:38;95882.84;;;9.32;66.63
6218;BME280;3142;48.206;11.550;2023-04-27T05:10:06;95884.06;;;9.36;67.48
6218;BME280;3142;48.206;11.550;2023-04-27T05:12:33;95880.66;;;9.36;66.45
6218;BME280;3142;48.206;11.550;2023-04-27T05:14:59;95888.28;;;9.37;66.26
6218;BME280;3142;48.206;11.550;2023-04-27T05:17:26;95878.28;;;9.41;66.60
6218;BME280;3142;48.206;11.550;2023-04-27T05:19:52;95877.47;;;9.40;67.24
6218;BME280;3142;48.206;11.550;2023-04-27T05:22:19;95874.44;;;9.37;67.72
6218;BME280;3142;48.206;11.550;2023-04-27T05:24:46;95876.66;;;9.40;67.49
6218;BME280;3142;48.206;11.550;2023-04-27T05:27:13;95879.16;;;9.48;67.43
6218;BME280;3142;48.206;11.550;2023-04-27T05:29:39;95872.16;;;9.55;67.81
6218;BME280;3142;48.206;11.550;2023-04-27T05:32:06;95870.34;;;9.56;67.54
6218;BME280;3142;48.206;11.550;2023-04-27T05:34:32;95872.53;;;9.52;66.97
6218;BME280;3142;48.206;11.550;2023-04-27T05:36:59;95873.13;;;9.47;67.43
6218;BME280;3142;48.206;11.550;2023-04-27T05:39:25;95881.38;;;9.51;66.99
6218;BME280;3142;48.206;11.550;2023-04-27T05:41:53;95883.19;;;9.50;67.60
6218;BME280;3142;48.206;11.550;2023-04-27T05:44:19;95889.25;;;9.58;66.35
6218;BME280;3142;48.206;11.550;2023-04-27T05:46:46;95897.09;;;9.58;67.02
6218;BME280;3142;48.206;11.550;2023-04-27T05:49:12;95907.84;;;9.69;66.81
6218;BME280;3142;48.206;11.550;2023-04-27T05:51:38;95906.28;;;9.75;66.20
6218;BME280;3142;48.206;11.550;2023-04-27T05:54:06;95901.44;;;9.72;65.24
6218;BME280;3142;48.206;11.550;2023-04-27T05:56:33;95902.41;;;9.71;64.42
6218;BME280;3142;48.206;11.550;2023-04-27T05:59:01;95894.03;;;9.75;64.21
6218;BME280;3142;48.206;11.550;2023-04-27T06:01:27;95901.69;;;9.77;64.74
6218;BME280;3142;48.206;11.550;2023-04-27T06:03:54;95899.31;;;9.82;63.65
6218;BME280;3142;48.206;11.550;2023-04-27T06:06:25;95894.75;;;9.91;63.81
6218;BME280;3142;48.206;11.550;2023-04-27T06:08:52;95895.38;;;9.93;64.03
6218;BME280;3142;48.206;11.550;2023-04-27T06:11:18;95895.38;;;9.99;64.25
6218;BME280;3142;48.206;11.550;2023-04-27T06:13:45;95890.63;;;10.09;63.67
6218;BME280;3142;48.206;11.550;2023-04-27T06:16:13;95883.66;;;10.17;64.02
6218;BME280;3142;48.206;11.550;2023-04-27T06:18:40;95897.59;;;10.24;63.32
6218;BME280;3142;48.206;11.550;2023-04-27T06:21:06;95903.25;;;10.27;63.50
6218;BME280;3142;48.206;11.550;2023-04-27T06:23:33;95903.69;;;10.31;62.84
6218;BME280;3142;48.206;11.550;2023-04-27T06:26:00;95908.72;;;10.32;62.71
6218;BME280;3142;48.206;11.550;2023-04-27T06:28:26;95907.53;;;10.35;62.38
6218;BME280;3142;48.206;11.550;2023-04-27T06:30:52;95902.69;;;10.38;62.14
6218;BME280;3142;48.206;11.550;2023-04-27T06:33:20;95909.19;;;10.49;61.79
6218;BME280;3142;48.206;11.550;2023-04-27T06:35:47;95914.47;;;10.56;61.18
6218;BME280;3142;48.206;11.550;2023-04-27T06:38:13;95903.56;;;10.52;60.31
6218;BME280;3142;48.206;11.550;2023-04-27T06:40:40;95914.44;;;10.49;59.66
6218;BME280;3142;48.206;11.550;2023-04-27T06:43:07;95918.66;;;10.44;58.69
6218;BME280;3142;48.206;11.550;2023-04-27T06:45:33;95919.06;;;10.47;58.23
6218;BME280;3142;48.206;11.550;2023-04-27T06:48:00;95912.44;;;10.51;58.73
6218;BME280;3142;48.206;11.550;2023-04-27T06:50:28;95908.47;;;10.62;57.94
6218;BME280;3142;48.206;11.550;2023-04-27T06:52:54;95916.53;;;10.67;57.92
6218;BME280;3142;48.206;11.550;2023-04-27T06:55:21;95912.53;;;10.71;56.71
6218;BME280;3142;48.206;11.550;2023-04-27T06:57:48;95906.44;;;10.64;56.97
6218;BME280;3142;48.206;11.550;2023-04-27T07:00:14;95908.09;;;10.72;56.80
6218;BME280;3142;48.206;11.550;2023-04-27T07:02:41;95916.16;;;10.77;56.93
6218;BME280;3142;48.206;11.550;2023-04-27T07:05:08;95905.53;;;10.85;57.00
6218;BME280;3142;48.206;11.550;2023-04-27T07:07:36;95912.81;;;10.96;57.24
6218;BME280;3142;48.206;11.550;2023-04-27T07:10:03;95916.41;;;10.88;56.65
6218;BME280;3142;48.206;11.550;2023-04-27T07:12:30;95915.81;;;10.86;56.42
6218;BME280;3142;48.206;11.550;2023-04-27T07:14:56;95912.63;;;10.97;56.24
6218;BME280;3142;48.206;11.550;2023-04-27T07:17:23;95916.22;;;10.90;55.35
6218;BME280;3142;48.206;11.550;2023-04-27T07:19:49;95918.03;;;10.89;55.21
6218;BME280;3142;48.206;11.550;2023-04-27T07:22:16;95922.47;;;10.95;54.81
6218;BME280;3142;48.206;11.550;2023-04-27T07:24:43;95914.63;;;10.95;53.56
6218;BME280;3142;48.206;11.550;2023-04-27T07:27:10;95916.03;;;10.91;53.26
6218;BME280;3142;48.206;11.550;2023-04-27T07:29:37;95916.81;;;10.92;53.43
6218;BME280;3142;48.206;11.550;2023-04-27T07:32:05;95917.06;;;10.97;53.65
6218;BME280;3142;48.206;11.550;2023-04-27T07:34:31;95916.47;;;11.02;53.90
6218;BME280;3142;48.206;11.550;2023-04-27T07:36:58;95911.66;;;11.12;53.46
6218;BME280;3142;48.206;11.550;2023-04-27T07:39:24;95918.91;;;11.16;52.30
6218;BME280;3142;48.206;11.550;2023-04-27T07:41:53;95920.13;;;11.20;52.22
6218;BME280;3142;48.206;11.550;2023-04-27T07:44:19;95914.28;;;11.18;52.21
6218;BME280;3142;48.206;11.550;2023-04-27T07:46:46;95912.91;;;11.29;52.23
6218;BME280;3142;48.206;11.550;2023-04-27T07:49:13;95915.75;;;11.47;51.83
6218;BME280;3142;48.206;11.550;2023-04-27T07:51:40;95917.81;;;11.65;52.06
6218;BME280;3142;48.206;11.550;2023-04-27T07:54:07;95912.38;;;11.86;51.70
6218;BME280;3142;48.206;11.550;2023-04-27T07:56:33;95913.56;;;12.04;51.79
6218;BME280;3142;48.206;11.550;2023-04-27T07:59:01;95914.38;;;12.24;51.59
6218;BME280;3142;48.206;11.550;2023-04-27T08:01:28;95920.59;;;12.36;50.38
6218;BME280;3142;48.206;11.550;2023-04-27T08:03:54;95918.38;;;12.40;50.32
6218;BME280;3142;48.206;11.550;2023-04-27T08:06:22;95928.06;;;12.33;50.00
6218;BME280;3142;48.206;11.550;2023-04-27T08:08:48;95927.06;;;12.34;50.45
6218;BME280;3142;48.206;11.550;2023-04-27T08:11:15;95925.84;;;12.30;50.42
6218;BME280;3142;48.206;11.550;2023-04-27T08:13:41;95923.63;;;12.33;50.25
6218;BME280;3142;48.206;11.550;2023-04-27T08:16:09;95922.59;;;12.48;50.50
6218;BME280;3142;48.206;11.550;2023-04-27T08:18:35;95918.13;;;12.55;50.19
6218;BME280;3142;48.206;11.550;2023-04-27T08:21:02;95932.84;;;12.62;50.84
6218;BME280;3142;48.206;11.550;2023-04-27T08:23:29;95920.88;;;12.73;50.98
6218;BME280;3142;48.206;11.550;2023-04-27T08:25:57;95923.88;;;12.90;50.91
6218;BME280;3142;48.206;11.550;2023-04-27T08:28:23;95928.06;;;13.04;51.98
6218;BME280;3142;48.206;11.550;2023-04-27T08:30:50;95938.53;;;13.11;51.07
6218;BME280;3142;48.206;11.550;2023-04-27T08:33:17;95926.56;;;13.15;51.35
6218;BME280;3142;48.206;11.550;2023-04-27T08:35:44;95929.78;;;13.30;50.30
6218;BME280;3142;48.206;11.550;2023-04-27T08:38:10;95931.56;;;13.36;50.90
6218;BME280;3142;48.206;11.550;2023-04-27T08:40:41;95932.22;;;13.56;50.35
6218;BME280;3142;48.206;11.550;2023-04-27T08:43:08;95927.50;;;13.72;51.33
6218;BME280;3142;48.206;11.550;2023-04-27T08:45:34;95926.78;;;13.83;50.05
6218;BME280;3142;48.206;11.550;2023-04-27T08:48:01;95923.63;;;13.99;49.76
6218;BME280;3142;48.206;11.550;2023-04-27T08:50:28;95924.38;;;14.06;47.43
6218;BME280;3142;48.206;11.550;2023-04-27T08:52:55;95921.19;;;13.98;47.09
6218;BME280;3142;48.206;11.550;2023-04-27T08:55:22;95922.06;;;13.91;47.54
6218;BME280;3142;48.206;11.550;2023-04-27T08:57:55;95924.94;;;13.83;47.52
6218;BME280;3142;48.206;11.550;2023-04-27T09:00:23;95919.38;;;13.73;47.58
6218;BME280;3142;48.206;11.550;2023-04-27T09:02:50;95915.97;;;13.66;48.55
6218;BME280;3142;48.206;11.550;2023-04-27T09:05:17;95920.94;;;13.81;48.28
6218;BME280;3142;48.206;11.550;2023-04-27T09:07:56;95918.66;;;14.34;47.46
6218;BME280;3142;48.206;11.550;2023-04-27T09:10:23;95915.06;;;14.54;47.14
6218;BME280;3142;48.206;11.550;2023-04-27T09:12:57;95914.72;;;14.43;47.49
6218;BME280;3142;48.206;11.550;2023-04-27T09:15:24;95913.50;;;14.46;48.00
6218;BME280;3142;48.206;11.550;2023-04-27T09:17:54;95912.63;;;14.52;47.54
6218;BME280;3142;48.206;11.550;2023-04-27T09:20:21;95908.44;;;14.99;47.09
6218;BME280;3142;48.206;11.550;2023-04-27T09:22:50;95916.50;;;14.86;47.86
6218;BME280;3142;48.206;11.550;2023-04-27T09:25:25;95900.75;;;14.98;47.71
6218;BME280;3142;48.206;11.550;2023-04-27T09:27:52;95901.25;;;15.66;46.32
6218;BME280;3142;48.206;11.550;2023-04-27T09:30:20;95898.00;;;16.18;45.12
6218;BME280;3142;48.206;11.550;2023-04-27T09:32:51;95894.22;;;17.01;44.01
6218;BME280;3142;48.206;11.550;2023-04-27T09:35:20;95891.88;;;17.95;42.11
6218;BME280;3142;48.206;11.550;2023-04-27T09:37:48;95881.38;;;18.17;42.19
6218;BME280;3142;48.206;11.550;2023-04-27T09:40:17;95888.09;;;18.41;39.80
6218;BME280;3142;48.206;11.550;2023-04-27T09:42:45;95880.94;;;18.80;38.40
6218;BME280;3142;48.206;11.550;2023-04-27T09:45:12;95887.47;;;18.17;39.09
6218;BME280;3142;48.206;11.550;2023-04-27T09:47:39;95888.81;;;18.20;40.31
6218;BME280;3142;48.206;11.550;2023-04-27T09:50:07;95875.63;;;19.29;37.54
6218;BME280;3142;48.206;11.550;2023-04-27T09:52:34;95888.28;;;19.71;37.15
6218;BME280;3142;48.206;11.550;2023-04-27T09:55:02;95883.34;;;20.17;36.35
6218;BME280;3142;48.206;11.550;2023-04-27T09:57:35;95877.25;;;20.63;36.43
6218;BME280;3142;48.206;11.550;2023-04-27T10:00:13;95873.00;;;21.35;34.61
6218;BME280;3142;48.206;11.550;2023-04-27T10:02:51;95862.91;;;21.42;34.85
6218;BME280;3142;48.206;11.550;2023-04-27T10:05:41;95867.56;;;20.99;34.14
6218;BME280;3142;48.206;11.550;2023-04-27T10:08:13;95869.34;;;20.31;34.86
6218;BME280;3142;48.206;11.550;2023-04-27T10:10:41;95871.09;;;19.24;36.23
6218;BME280;3142;48.206;11.550;2023-04-27T10:13:20;95874.16;;;18.68;37.29
6218;BME280;3142;48.206;11.550;2023-04-27T10:15:49;95860.63;;;19.13;36.78
6218;BME280;3142;48.206;11.550;2023-04-27T10:18:26;95861.19;;;18.32;37.83
6218;BME280;3142;48.206;11.550;2023-04-27T10:20:53;95862.91;;;17.55;39.23
6218;BME280;3142;48.206;11.550;2023-04-27T10:23:24;95858.63;;;17.37;39.93
6218;BME280;3142;48.206;11.550;2023-04-27T10:25:52;95859.22;;;18.23;38.76
6218;BME280;3142;48.206;11.550;2023-04-27T10:28:19;95861.63;;;18.24;38.42
6218;BME280;3142;48.206;11.550;2023-04-27T10:30:46;95856.66;;;17.44;39.51
6218;BME280;3142;48.206;11.550;2023-04-27T10:33:17;95858.03;;;17.18;40.09
6218;BME280;3142;48.206;11.550;2023-04-27T10:35:53;95858.19;;;17.57;39.61
6218;BME280;3142;48.206;11.550;2023-04-27T10:38:25;95864.31;;;17.74;39.20
6218;BME280;3142;48.206;11.550;2023-04-27T10:40:56;95856.31;;;17.69;40.50
6218;BME280;3142;48.206;11.550;2023-04-27T10:43:27;95857.25;;;18.35;38.22
6218;BME280;3142;48.206;11.550;2023-04-27T10:45:54;95853.19;;;18.88;37.25
6218;BME280;3142;48.206;11.550;2023-04-27T10:48:22;95850.81;;;19.67;37.13
6218;BME280;3142;48.206;11.550;2023-04-27T10:50:49;95848.91;;;20.37;35.67
6218;BME280;3142;48.206;11.550;2023-04-27T10:53:16;95845.69;;;20.35;35.93
6218;BME280;3142;48.206;11.550;2023-04-27T10:55:43;95844.81;;;20.19;36.02
6218;BME280;3142;48.206;11.550;2023-04-27T10:58:09;95847.78;;;20.70;34.90
6218;BME280;3142;48.206;11.550;2023-04-27T11:00:38;95849.16;;;19.93;35.55
6218;BME280;3142;48.206;11.550;2023-04-27T11:03:11;95853.41;;;20.36;35.32
6218;BME280;3142;48.206;11.550;2023-04-27T11:05:40;95839.50;;;21.59;33.89
6218;BME280;3142;48.206;11.550;2023-04-27T11:08:09;95840.47;;;21.18;34.93
6218;BME280;3142;48.206;11.550;2023-04-27T11:10:38;95834.66;;;21.31;35.54
6218;BME280;3142;48.206;11.550;2023-04-27T11:13:07;95837.81;;;21.18;35.19
6218;BME280;3142;48.206;11.550;2023-04-27T11:15:44;95843.75;;;21.61;33.81
6218;BME280;3142;48.206;11.550;2023-04-27T11:18:11;95845.94;;;20.76;34.93
6218;BME280;3142;48.206;11.550;2023-04-27T11:20:39;95846.88;;;20.54;35.82
6218;BME280;3142;48.206;11.550;2023-04-27T11:23:06;95852.06;;;20.29;36.23
6218;BME280;3142;48.206;11.550;2023-04-27T11:25:35;95838.41;;;21.40;34.62
6218;BME280;3142;48.206;11.550;2023-04-27T11:28:01;95836.84;;;21.80;32.54
6218;BME280;3142;48.206;11.550;2023-04-27T11:30:28;95838.97;;;21.93;32.47
6218;BME280;3142;48.206;11.550;2023-04-27T11:32:55;95838.84;;;22.59;31.62
6218;BME280;3142;48.206;11.550;2023-04-27T11:35:31;95841.44;;;22.85;31.54
6218;BME280;3142;48.206;11.550;2023-04-27T11:37:59;95846.16;;;23.08;31.80
6218;BME280;3142;48.206;11.550;2023-04-27T11:40:25;95847.56;;;22.90;31.75
6218;BME280;3142;48.206;11.550;2023-04-27T11:42:56;95851.66;;;22.57;31.97
6218;BME280;3142;48.206;11.550;2023-04-27T11:45:24;95845.84;;;22.40;32.64
6218;BME280;3142;48.206;11.550;2023-04-27T11:47:51;95848.47;;;22.45;32.01
6218;BME280;3142;48.206;11.550;2023-04-27T11:50:18;95854.63;;;21.34;33.87
6218;BME280;3142;48.206;11.550;2023-04-27T11:52:48;95853.31;;;21.31;34.31
6218;BME280;3142;48.206;11.550;2023-04-27T11:55:19;95852.19;;;21.17;34.90
6218;BME280;3142;48.206;11.550;2023-04-27T11:57:46;95854.22;;;20.89;33.90
6218;BME280;3142;48.206;11.550;2023-04-27T12:00:13;95864.53;;;20.28;34.74
6218;BME280;3142;48.206;11.550;2023-04-27T12:02:41;95864.91;;;20.05;34.52
6218;BME280;3142;48.206;11.550;2023-04-27T12:05:08;95864.63;;;19.69;35.46
6218;BME280;3142;48.206;11.550;2023-04-27T12:07:36;95865.09;;;19.61;36.06
6218;BME280;3142;48.206;11.550;2023-04-27T12:10:03;95864.25;;;19.56;36.61
6218;BME280;3142;48.206;11.550;2023-04-27T12:12:31;95857.69;;;19.63;36.13
6218;BME280;3142;48.206;11.550;2023-04-27T12:14:57;95858.63;;;19.25;36.48
6218;BME280;3142;48.206;11.550;2023-04-27T12:17:24;95856.06;;;19.08;36.30
6218;BME280;3142;48.206;11.550;2023-04-27T12:19:50;95859.22;;;18.83;36.44
6218;BME280;3142;48.206;11.550;2023-04-27T12:22:17;95859.78;;;18.63;37.05
6218;BME280;3142;48.206;11.550;2023-04-27T12:24:43;95858.13;;;18.79;38.07
6218;BME280;3142;48.206;11.550;2023-04-27T12:27:10;95861.63;;;19.07;37.63
6218;BME280;3142;48.206;11.550;2023-04-27T12:29:38;95854.41;;;19.02;37.00
6218;BME280;3142;48.206;11.550;2023-04-27T12:32:04;95856.72;;;18.93;37.90
6218;BME280;3142;48.206;11.550;2023-04-27T12:34:31;95858.00;;;18.69;39.32
6218;BME280;3142;48.206;11.550;2023-04-27T12:36:57;95853.09;;;18.61;38.12
6218;BME280;3142;48.206;11.550;2023-04-27T12:39:24;95850.91;;;18.75;38.27
6218;BME280;3142;48.206;11.550;2023-04-27T12:41:51;95849.31;;;18.74;38.12
6218;BME280;3142;48.206;11.550;2023-04-27T12:44:19;95852.84;;;18.79;38.15
6218;BME280;3142;48.206;11.550;2023-04-27T12:46:47;95846.69;;;19.01;39.27
6218;BME280;3142;48.206;11.550;2023-04-27T12:49:13;95846.19;;;19.04;39.06
6218;BME280;3142;48.206;11.550;2023-04-27T12:51:40;95841.34;;;18.96;38.99
6218;BME280;3142;48.206;11.550;2023-04-27T12:54:08;95843.50;;;18.99;38.65
6218;BME280;3142;48.206;11.550;2023-04-27T12:56:35;95844.34;;;19.04;38.64
6218;BME280;3142;48.206;11.550;2023-04-27T12:59:01;95843.56;;;18.82;39.39
6218;BME280;3142;48.206;11.550;2023-04-27T13:01:28;95844.44;;;18.66;39.85
6218;BME280;3142;48.206;11.550;2023-04-27T13:04:02;95839.16;;;18.49;40.21
6218;BME280;3142;48.206;11.550;2023-04-27T13:06:30;95847.09;;;18.49;39.48
6218;BME280;3142;48.206;11.550;2023-04-27T13:08:56;95838.44;;;18.53;39.61
6218;BME280;3142;48.206;11.550;2023-04-27T13:11:23;95849.19;;;18.47;39.50
6218;BME280;3142;48.206;11.550;2023-04-27T13:13:50;95837.09;;;18.51;38.67
6218;BME280;3142;48.206;11.550;2023-04-27T13:16:16;95834.94;;;18.70;39.87